Time;durP1;ratioP1;P1;durP2;ratioP2;P2;SDS_P1;SDS_P2;PMS_P1;PMS_P2;Temp;Humidity;BMP_temperature;BMP_pressure;BME280_temperature;BME280_humidity;BME280_pressure;Samples;Min_cycle;Max_cycle;Signal;HPM_P1;HPM_P2
2021/08/07 00:02:09;;;;;;;2.50;0.68;;;16.10;99.90;;;;;;5091585;28;20066;-66
2021/08/07 00:04:35;;;;;;;7.07;0.90;;;16.20;99.90;;;;;;5090347;28;20035;-66
2021/08/07 00:07:00;;;;;;;5.95;1.73;;;16.10;99.90;;;;;;5090934;28;20028;-65
2021/08/07 00:09:26;;;;;;;2.25;0.70;;;16.10;99.90;;;;;;5091078;28;20437;-66
2021/08/07 00:11:51;;;;;;;6.53;0.77;;;16.10;99.90;;;;;;5091727;28;20028;-65
2021/08/07 00:14:17;;;;;;;3.22;0.60;;;16.10;99.90;;;;;;5090831;28;20028;-65
2021/08/07 00:16:43;;;;;;;5.15;0.80;;;16.10;99.90;;;;;;5090904;28;20107;-65
2021/08/07 00:19:08;;;;;;;6.38;1.10;;;16.10;99.90;;;;;;5091325;28;20487;-66
2021/08/07 00:21:34;;;;;;;3.88;0.90;;;16.10;99.90;;;;;;5090845;28;20024;-65
2021/08/07 00:23:59;;;;;;;3.95;0.75;;;16.10;99.90;;;;;;5091034;28;20502;-66
2021/08/07 00:26:25;;;;;;;2.00;0.75;;;16.10;99.90;;;;;;5090658;28;20040;-66
2021/08/07 00:28:50;;;;;;;4.35;0.82;;;16.00;99.90;;;;;;5090656;28;20035;-66
2021/08/07 00:31:16;;;;;;;9.93;1.30;;;16.00;99.90;;;;;;5090600;28;20031;-66
2021/08/07 00:33:42;;;;;;;5.72;1.10;;;16.00;99.90;;;;;;5091331;28;20025;-66
2021/08/07 00:36:07;;;;;;;8.88;1.40;;;16.00;99.90;;;;;;5090161;28;20028;-65
2021/08/07 00:38:33;;;;;;;7.32;1.35;;;16.00;99.90;;;;;;5090107;28;20028;-67
2021/08/07 00:40:58;;;;;;;12.93;2.85;;;15.90;99.90;;;;;;5090571;28;20039;-66
2021/08/07 00:43:24;;;;;;;4.22;1.13;;;16.00;99.90;;;;;;5090289;28;20044;-65
2021/08/07 00:45:50;;;;;;;9.68;1.23;;;15.90;99.90;;;;;;5089448;28;20036;-66
2021/08/07 00:48:16;;;;;;;5.57;1.15;;;15.90;99.90;;;;;;5089800;28;20097;-65
2021/08/07 00:50:45;;;;;;;12.02;1.95;;;15.90;99.90;;;;;;5089395;28;20741;-65
2021/08/07 00:53:11;;;;;;;4.55;1.80;;;15.90;99.90;;;;;;5091054;28;20483;-65
2021/08/07 00:55:36;;;;;;;7.05;1.20;;;15.90;99.90;;;;;;5090155;28;20107;-66
2021/08/07 00:58:02;;;;;;;3.97;1.00;;;15.90;99.90;;;;;;5090386;28;20024;-66
2021/08/07 01:00:28;;;;;;;3.83;1.45;;;15.90;99.90;;;;;;5090660;28;20060;-66
2021/08/07 01:03:00;;;;;;;7.15;1.35;;;15.80;99.90;;;;;;5089497;28;20111;-66
2021/08/07 01:05:35;;;;;;;4.35;1.05;;;15.80;99.90;;;;;;5090079;28;20032;-66
2021/08/07 01:08:22;;;;;;;9.05;1.52;;;15.80;99.90;;;;;;5089729;28;20082;-65
2021/08/07 01:11:18;;;;;;;6.00;1.67;;;15.80;99.90;;;;;;5084989;28;20039;-66
2021/08/07 01:13:50;;;;;;;5.03;1.42;;;15.80;99.90;;;;;;5085592;28;20032;-66
2021/08/07 01:16:42;;;;;;;4.82;0.77;;;15.80;99.90;;;;;;5085776;28;20495;-66
2021/08/07 01:19:15;;;;;;;8.48;1.42;;;15.70;99.90;;;;;;5086471;28;20093;-66
2021/08/07 01:21:53;;;;;;;14.90;1.60;;;15.70;99.90;;;;;;5089483;28;20411;-66
2021/08/07 01:24:26;;;;;;;4.75;1.55;;;15.60;99.90;;;;;;5086440;28;20028;-66
2021/08/07 01:27:23;;;;;;;8.30;1.17;;;15.50;99.90;;;;;;5089273;28;20468;-66
2021/08/07 01:29:52;;;;;;;8.32;1.13;;;15.50;99.90;;;;;;5085741;28;20046;-66
2021/08/07 01:32:23;;;;;;;10.57;1.42;;;15.50;99.90;;;;;;5082154;28;20024;-66
2021/08/07 01:34:49;;;;;;;4.35;1.58;;;15.40;99.90;;;;;;5089059;28;20035;-66
2021/08/07 01:37:15;;;;;;;8.60;1.30;;;15.40;99.90;;;;;;5083121;28;20116;-66
2021/08/07 01:39:46;;;;;;;3.85;1.23;;;15.40;99.90;;;;;;5088424;28;20032;-66
2021/08/07 01:42:12;;;;;;;9.63;1.45;;;15.40;99.90;;;;;;5085219;28;20036;-66
2021/08/07 01:44:37;;;;;;;4.85;1.00;;;15.30;99.90;;;;;;5079361;28;20118;-68
2021/08/07 01:47:15;;;;;;;5.07;0.90;;;15.30;99.90;;;;;;5068544;28;20029;-66
2021/08/07 01:49:52;;;;;;;7.03;1.10;;;15.20;99.90;;;;;;5068508;28;20036;-66
2021/08/07 01:52:34;;;;;;;8.30;1.17;;;15.20;99.90;;;;;;5066007;28;20111;-66
2021/08/07 01:55:03;;;;;;;4.45;1.48;;;15.20;99.90;;;;;;5068759;28;20039;-65
2021/08/07 01:57:32;;;;;;;6.68;1.85;;;15.20;99.90;;;;;;5068737;28;20460;-66
2021/08/07 01:59:58;;;;;;;6.70;1.38;;;15.20;99.90;;;;;;5068515;28;20085;-65
2021/08/07 02:02:25;;;;;;;6.93;1.10;;;15.10;99.90;;;;;;5069049;28;20032;-66
2021/08/07 02:04:51;;;;;;;7.53;1.10;;;15.10;99.90;;;;;;5067958;28;20628;-66
2021/08/07 02:07:17;;;;;;;6.18;1.10;;;15.00;99.90;;;;;;5068612;28;20064;-66
2021/08/07 02:09:45;;;;;;;9.82;1.33;;;15.00;99.90;;;;;;5067431;28;20039;-66
2021/08/07 02:12:13;;;;;;;6.85;1.63;;;15.00;99.90;;;;;;5061023;28;20037;-66
2021/08/07 02:14:40;;;;;;;10.15;1.20;;;15.00;99.90;;;;;;5066152;28;20029;-67
2021/08/07 02:17:05;;;;;;;6.70;1.35;;;15.00;99.90;;;;;;5072605;28;20725;-66
2021/08/07 02:19:31;;;;;;;14.57;1.52;;;14.90;99.90;;;;;;5071618;28;20043;-66
2021/08/07 02:21:58;;;;;;;8.85;1.58;;;14.90;99.90;;;;;;5071899;28;20097;-66
2021/08/07 02:24:25;;;;;;;9.35;2.08;;;14.90;99.90;;;;;;5086526;28;20040;-68
2021/08/07 02:26:53;;;;;;;7.80;1.83;;;14.90;99.90;;;;;;5090692;28;20064;-66
2021/08/07 02:29:19;;;;;;;3.80;1.70;;;14.80;99.90;;;;;;5092443;28;20032;-66
2021/08/07 02:31:46;;;;;;;3.10;1.10;;;14.90;99.90;;;;;;5092175;28;20031;-66
2021/08/07 02:34:12;;;;;;;8.65;2.30;;;14.80;99.90;;;;;;5083015;28;20040;-66
2021/08/07 02:36:39;;;;;;;9.38;1.42;;;14.90;99.90;;;;;;5088271;28;20028;-66
2021/08/07 02:39:06;;;;;;;7.25;1.73;;;14.80;99.90;;;;;;5092367;28;20468;-66
2021/08/07 02:41:32;;;;;;;9.55;1.33;;;14.80;99.90;;;;;;5075716;28;20476;-66
2021/08/07 02:43:59;;;;;;;9.07;1.83;;;14.80;99.90;;;;;;5092010;28;20028;-66
2021/08/07 02:46:26;;;;;;;4.47;1.75;;;14.80;99.90;;;;;;5092474;28;20026;-66
2021/08/07 02:48:53;;;;;;;3.58;1.35;;;14.80;99.90;;;;;;5092312;28;20122;-66
2021/08/07 02:51:20;;;;;;;8.93;1.63;;;14.90;99.90;;;;;;5092218;28;20492;-66
2021/08/07 02:53:48;;;;;;;6.55;1.80;;;14.90;99.90;;;;;;5092006;28;20083;-66
2021/08/07 02:56:14;;;;;;;9.55;1.63;;;14.90;99.90;;;;;;5092621;28;20024;-66
2021/08/07 02:58:41;;;;;;;4.80;1.90;;;15.00;99.90;;;;;;5092721;28;20035;-66
2021/08/07 03:01:07;;;;;;;8.85;1.80;;;15.00;99.90;;;;;;5088215;28;20201;-66
2021/08/07 03:03:32;;;;;;;8.65;2.10;;;15.00;99.90;;;;;;5086790;28;20066;-66
2021/08/07 03:05:58;;;;;;;6.93;2.00;;;15.00;99.90;;;;;;5091311;28;20032;-67
2021/08/07 03:08:24;;;;;;;9.40;1.40;;;15.10;99.90;;;;;;5091683;28;20020;-66
2021/08/07 03:10:50;;;;;;;5.30;2.38;;;15.10;99.90;;;;;;5091320;28;20218;-68
2021/08/07 03:13:16;;;;;;;4.93;1.52;;;15.00;99.90;;;;;;5091612;28;20119;-66
2021/08/07 03:15:42;;;;;;;11.60;2.13;;;15.10;99.90;;;;;;5091694;28;20051;-66
2021/08/07 03:18:07;;;;;;;10.70;2.28;;;15.10;99.90;;;;;;5091633;28;20036;-66
2021/08/07 03:20:33;;;;;;;4.97;1.85;;;15.10;99.90;;;;;;5091741;28;20040;-66
2021/08/07 03:23:05;;;;;;;4.38;1.67;;;15.20;99.90;;;;;;5090682;28;20040;-66
2021/08/07 03:25:31;;;;;;;7.88;2.10;;;15.20;99.90;;;;;;5091251;28;20491;-66
2021/08/07 03:27:57;;;;;;;4.38;1.90;;;15.20;99.90;;;;;;5080389;28;20032;-66
2021/08/07 03:30:24;;;;;;;6.07;1.63;;;15.20;99.90;;;;;;5091501;28;20035;-66
2021/08/07 03:32:50;;;;;;;11.82;2.20;;;15.20;99.90;;;;;;5091307;28;20024;-66
2021/08/07 03:35:15;;;;;;;5.97;2.03;;;15.20;99.90;;;;;;5090871;28;20471;-66
2021/08/07 03:37:41;;;;;;;6.53;1.90;;;15.30;99.90;;;;;;5080262;28;20427;-66
2021/08/07 03:40:07;;;;;;;9.15;2.40;;;15.30;99.90;;;;;;5091143;28;20047;-66
2021/08/07 03:42:33;;;;;;;8.00;2.78;;;15.30;99.90;;;;;;5093040;28;20542;-66
2021/08/07 03:44:58;;;;;;;10.68;2.08;;;15.30;99.90;;;;;;5081013;28;20054;-67
2021/08/07 03:47:24;;;;;;;7.60;2.05;;;15.30;99.90;;;;;;5091097;28;20060;-66
2021/08/07 03:49:50;;;;;;;7.60;2.03;;;15.40;99.90;;;;;;5081670;28;20036;-66
2021/08/07 03:52:15;;;;;;;6.90;2.35;;;15.40;99.90;;;;;;5090818;28;20032;-66
2021/08/07 03:54:41;;;;;;;7.03;2.15;;;15.50;99.90;;;;;;5091498;28;20028;-66
2021/08/07 03:57:06;;;;;;;4.75;2.00;;;15.50;99.90;;;;;;5091069;28;20504;-66
2021/08/07 03:59:32;;;;;;;4.78;1.98;;;15.50;99.90;;;;;;5091187;28;20042;-66
2021/08/07 04:01:58;;;;;;;17.13;2.90;;;15.40;99.90;;;;;;5091547;28;20072;-66
2021/08/07 04:04:24;;;;;;;7.82;2.00;;;15.40;99.90;;;;;;5090559;28;20085;-66
2021/08/07 04:06:49;;;;;;;4.85;1.80;;;15.40;99.90;;;;;;5081248;28;20052;-66
2021/08/07 04:09:15;;;;;;;5.15;1.63;;;15.40;99.90;;;;;;5090563;28;20066;-65
2021/08/07 04:11:41;;;;;;;6.35;1.80;;;15.50;99.90;;;;;;5091055;28;20494;-66
2021/08/07 04:14:06;;;;;;;9.85;2.40;;;15.40;99.90;;;;;;5089996;28;20036;-66
2021/08/07 04:16:33;;;;;;;6.55;1.85;;;15.40;99.90;;;;;;5090814;28;20039;-65
2021/08/07 04:18:59;;;;;;;9.70;1.92;;;15.40;99.90;;;;;;5081121;28;20092;-65
2021/08/07 04:21:25;;;;;;;7.78;1.80;;;15.40;99.90;;;;;;5090522;28;20032;-66
2021/08/07 04:23:50;;;;;;;10.77;1.65;;;15.40;99.90;;;;;;5090450;28;20028;-65
2021/08/07 04:26:16;;;;;;;8.57;1.80;;;15.50;99.90;;;;;;5080063;28;20064;-66
2021/08/07 04:28:42;;;;;;;4.60;1.63;;;15.40;99.90;;;;;;5090949;28;20512;-65
2021/08/07 04:31:07;;;;;;;10.13;1.95;;;15.30;99.90;;;;;;5090355;28;20036;-66
2021/08/07 04:33:33;;;;;;;10.07;1.85;;;15.30;99.90;;;;;;5090645;28;20039;-65
2021/08/07 04:36:01;;;;;;;7.10;2.40;;;15.20;99.90;;;;;;5085270;28;20032;-66
2021/08/07 04:38:27;;;;;;;5.95;1.85;;;15.20;99.90;;;;;;5088935;28;20027;-65
2021/08/07 04:40:52;;;;;;;5.65;1.65;;;15.20;99.90;;;;;;5090295;28;20036;-66
2021/08/07 04:43:18;;;;;;;7.68;2.45;;;15.10;99.90;;;;;;5090060;28;20132;-65
2021/08/07 04:45:44;;;;;;;7.65;1.63;;;15.00;99.90;;;;;;5090197;28;20081;-65
2021/08/07 04:48:09;;;;;;;7.72;2.45;;;15.00;99.90;;;;;;5090008;28;20028;-66
2021/08/07 04:50:36;;;;;;;7.82;2.00;;;15.00;99.90;;;;;;5090401;28;20038;-66
2021/08/07 04:53:02;;;;;;;11.50;2.15;;;15.00;99.90;;;;;;5090712;28;20474;-66
2021/08/07 04:55:28;;;;;;;12.20;2.42;;;15.00;99.90;;;;;;5089879;28;20036;-66
2021/08/07 04:57:54;;;;;;;8.55;1.98;;;14.90;99.90;;;;;;5079592;28;20572;-66
2021/08/07 05:00:20;;;;;;;10.90;1.80;;;15.00;99.90;;;;;;5080290;28;20123;-66
2021/08/07 05:02:46;;;;;;;9.35;1.98;;;14.90;99.90;;;;;;5089953;28;20032;-65
2021/08/07 05:05:13;;;;;;;5.20;1.83;;;15.00;99.90;;;;;;5089462;28;20461;-69
2021/08/07 05:07:39;;;;;;;8.02;1.92;;;14.90;99.90;;;;;;5089189;28;20024;-66
2021/08/07 05:10:06;;;;;;;6.45;1.63;;;14.90;99.90;;;;;;5089494;28;20406;-66
2021/08/07 05:12:32;;;;;;;4.82;1.50;;;15.00;99.90;;;;;;5089674;28;20047;-66
2021/08/07 05:14:57;;;;;;;14.00;2.40;;;15.00;99.90;;;;;;5089116;28;20036;-65
2021/08/07 05:17:24;;;;;;;9.70;2.22;;;15.00;99.90;;;;;;5079324;28;20176;-66
2021/08/07 05:19:51;;;;;;;10.32;1.85;;;15.00;99.90;;;;;;5079616;28;20036;-66
2021/08/07 05:22:17;;;;;;;9.80;1.73;;;15.10;99.90;;;;;;5088915;28;20032;-67
2021/08/07 05:24:43;;;;;;;5.35;1.02;;;15.10;99.90;;;;;;5088944;28;20035;-66
2021/08/07 05:27:09;;;;;;;6.20;2.50;;;15.10;99.90;;;;;;5089232;28;20044;-66
2021/08/07 05:29:35;;;;;;;3.20;1.63;;;15.10;99.90;;;;;;5088742;28;20420;-66
2021/08/07 05:32:00;;;;;;;7.53;2.28;;;15.20;99.90;;;;;;5075631;28;20713;-66
2021/08/07 05:34:26;;;;;;;4.10;1.30;;;15.20;99.90;;;;;;5088610;28;20028;-66
2021/08/07 05:36:52;;;;;;;4.03;1.42;;;15.20;99.90;;;;;;5088807;28;20123;-66
2021/08/07 05:39:17;;;;;;;4.85;1.55;;;15.30;99.90;;;;;;5088019;28;20028;-67
2021/08/07 05:41:43;;;;;;;4.85;2.30;;;15.30;99.90;;;;;;5089324;28;20032;-66
2021/08/07 05:44:08;;;;;;;5.75;1.38;;;15.30;99.90;;;;;;5088586;28;20036;-66
2021/08/07 05:46:34;;;;;;;5.28;1.08;;;15.30;99.90;;;;;;5088936;28;20379;-66
2021/08/07 05:49:00;;;;;;;4.93;1.10;;;15.40;99.90;;;;;;5088860;28;20423;-67
2021/08/07 05:51:25;;;;;;;7.47;1.00;;;15.40;99.90;;;;;;5087888;28;20063;-67
2021/08/07 05:53:52;;;;;;;8.82;1.75;;;15.40;99.90;;;;;;5088980;28;20036;-66
2021/08/07 05:56:18;;;;;;;7.88;1.10;;;15.50;99.90;;;;;;5079365;28;20032;-66
2021/08/07 05:58:44;;;;;;;7.45;1.33;;;15.60;99.90;;;;;;5089117;28;20038;-66
2021/08/07 06:01:09;;;;;;;6.72;1.20;;;15.70;99.90;;;;;;5089353;28;20047;-66
2021/08/07 06:03:35;;;;;;;5.55;1.00;;;15.90;99.90;;;;;;5089347;28;20476;-66
2021/08/07 06:06:01;;;;;;;6.93;0.98;;;16.10;99.90;;;;;;5082637;28;20560;-66
2021/08/07 06:08:29;;;;;;;5.45;1.13;;;16.20;99.90;;;;;;5089050;28;20028;-68
2021/08/07 06:10:56;;;;;;;4.68;1.15;;;16.40;99.90;;;;;;5088589;28;20032;-66
2021/08/07 06:13:22;;;;;;;5.18;0.82;;;16.50;99.90;;;;;;5079053;28;20403;-66
2021/08/07 06:15:48;;;;;;;3.65;0.80;;;16.70;99.90;;;;;;5087989;28;20032;-66
2021/08/07 06:18:13;;;;;;;4.10;0.80;;;16.90;99.90;;;;;;5088522;28;20044;-66
2021/08/07 06:20:39;;;;;;;3.53;1.10;;;17.10;99.90;;;;;;5089014;28;20058;-67
2021/08/07 06:23:05;;;;;;;5.38;1.00;;;17.30;99.90;;;;;;5089822;28;20044;-66
2021/08/07 06:25:31;;;;;;;13.50;1.27;;;17.50;99.90;;;;;;5078023;28;20044;-67
2021/08/07 06:27:56;;;;;;;6.47;0.77;;;17.60;99.90;;;;;;5089297;28;20070;-66
2021/08/07 06:30:24;;;;;;;3.75;0.80;;;17.70;99.90;;;;;;5089203;28;20453;-66
2021/08/07 06:32:50;;;;;;;5.25;1.02;;;17.90;99.90;;;;;;5089254;28;20036;-66
2021/08/07 06:35:16;;;;;;;2.55;0.50;;;18.10;99.90;;;;;;5089338;28;20119;-66
2021/08/07 06:37:42;;;;;;;3.17;0.70;;;18.50;99.90;;;;;;5088858;28;20071;-67
2021/08/07 06:40:08;;;;;;;2.92;0.95;;;18.80;99.90;;;;;;5090426;28;20096;-67
2021/08/07 06:42:34;;;;;;;4.07;0.43;;;19.10;99.90;;;;;;5088874;28;20032;-67
2021/08/07 06:44:59;;;;;;;4.82;0.68;;;19.50;99.90;;;;;;5089881;28;20028;-67
2021/08/07 06:47:25;;;;;;;3.78;0.40;;;19.80;99.90;;;;;;5079036;28;20469;-68
2021/08/07 06:49:51;;;;;;;1.58;0.47;;;19.80;99.90;;;;;;5088615;28;20054;-67
2021/08/07 06:52:17;;;;;;;2.65;0.30;;;19.70;99.90;;;;;;5088244;28;20024;-67
2021/08/07 06:54:42;;;;;;;2.38;0.30;;;19.60;99.90;;;;;;5088550;28;20034;-67
2021/08/07 06:57:08;;;;;;;2.00;0.40;;;19.50;99.90;;;;;;5070723;28;20051;-66
2021/08/07 06:59:34;;;;;;;2.60;0.25;;;19.40;99.90;;;;;;5080876;28;20032;-67
2021/08/07 07:01:59;;;;;;;3.13;0.40;;;19.20;99.90;;;;;;5067573;28;20069;-66
2021/08/07 07:04:27;;;;;;;8.52;1.17;;;19.20;99.90;;;;;;5071380;28;20084;-66
2021/08/07 07:06:53;;;;;;;3.30;0.68;;;19.30;99.90;;;;;;5064598;28;20494;-67
2021/08/07 07:09:19;;;;;;;2.55;0.40;;;19.40;99.90;;;;;;5072801;28;20028;-66
2021/08/07 07:11:44;;;;;;;3.42;0.40;;;19.30;99.90;;;;;;5071114;28;20077;-67
2021/08/07 07:14:10;;;;;;;2.95;0.40;;;19.20;99.90;;;;;;5071703;28;20035;-66
2021/08/07 07:16:35;;;;;;;5.88;0.60;;;19.20;99.90;;;;;;5071268;28;20021;-66
2021/08/07 07:19:01;;;;;;;4.05;0.65;;;19.10;99.90;;;;;;5071969;28;20021;-66
2021/08/07 07:21:27;;;;;;;1.52;0.50;;;18.90;99.90;;;;;;5071447;28;20115;-66
2021/08/07 07:23:52;;;;;;;3.33;1.15;;;18.80;99.90;;;;;;5070601;28;20035;-67
2021/08/07 07:26:18;;;;;;;3.17;0.60;;;18.80;99.90;;;;;;5060346;28;20150;-66
2021/08/07 07:28:44;;;;;;;7.30;1.15;;;18.90;99.90;;;;;;5061042;28;20310;-67
2021/08/07 07:31:09;;;;;;;6.32;0.38;;;18.90;99.90;;;;;;5063835;28;20044;-66
2021/08/07 07:33:35;;;;;;;5.53;0.90;;;18.90;99.90;;;;;;5076905;28;20028;-66
2021/08/07 07:36:01;;;;;;;4.85;0.43;;;18.90;99.90;;;;;;5068691;28;20421;-67
2021/08/07 07:38:26;;;;;;;3.38;0.30;;;18.90;99.90;;;;;;5071545;28;20556;-66
2021/08/07 07:40:52;;;;;;;2.55;0.40;;;18.80;99.90;;;;;;5064673;28;20037;-67
2021/08/07 07:43:20;;;;;;;2.70;0.60;;;18.80;99.90;;;;;;5069368;28;20033;-66
2021/08/07 07:45:46;;;;;;;1.83;0.40;;;18.80;99.90;;;;;;5069785;28;20037;-66
2021/08/07 07:48:12;;;;;;;7.68;1.20;;;18.70;99.90;;;;;;5070634;28;20544;-66
2021/08/07 07:50:38;;;;;;;2.70;0.55;;;18.60;99.90;;;;;;5069676;28;20120;-67
2021/08/07 07:53:04;;;;;;;3.97;0.55;;;18.60;99.90;;;;;;5066169;28;20037;-66
2021/08/07 07:55:30;;;;;;;3.40;0.98;;;18.60;99.90;;;;;;5070035;28;20032;-66
2021/08/07 07:58:00;;;;;;;3.65;0.55;;;18.50;99.90;;;;;;5070824;28;20036;-67
2021/08/07 08:00:26;;;;;;;4.03;0.40;;;18.60;99.90;;;;;;5069120;28;20036;-66
2021/08/07 08:02:52;;;;;;;2.45;0.47;;;18.50;99.90;;;;;;5064729;28;20127;-67
2021/08/07 08:05:19;;;;;;;5.13;0.70;;;18.40;99.90;;;;;;5067794;28;20056;-66
2021/08/07 08:07:44;;;;;;;3.40;0.60;;;18.40;99.90;;;;;;5068261;28;21057;-67
2021/08/07 08:10:11;;;;;;;7.00;0.55;;;18.40;99.90;;;;;;5066191;28;20040;-68
2021/08/07 08:12:38;;;;;;;5.28;0.55;;;18.40;99.90;;;;;;5071556;28;20036;-66
2021/08/07 08:15:05;;;;;;;6.97;1.10;;;18.40;99.90;;;;;;5069584;28;20055;-67
2021/08/07 08:17:31;;;;;;;4.72;0.60;;;18.50;99.90;;;;;;5068834;28;20051;-67
2021/08/07 08:19:57;;;;;;;3.30;0.40;;;18.70;99.90;;;;;;5067365;28;20045;-68
2021/08/07 08:22:23;;;;;;;2.60;0.40;;;19.10;99.90;;;;;;5068835;28;20048;-66
2021/08/07 08:24:48;;;;;;;1.85;0.40;;;19.30;99.90;;;;;;5071961;28;20043;-67
2021/08/07 08:27:18;;;;;;;4.18;0.63;;;19.40;99.90;;;;;;5062842;28;20092;-67
2021/08/07 08:29:48;;;;;;;4.85;1.02;;;19.60;99.90;;;;;;5067776;28;20024;-68
2021/08/07 08:32:14;;;;;;;3.45;0.80;;;19.60;99.90;;;;;;5069849;28;20094;-67
2021/08/07 08:34:40;;;;;;;2.33;0.30;;;19.70;99.90;;;;;;5070600;28;20043;-68
2021/08/07 08:37:06;;;;;;;3.42;0.60;;;19.90;99.90;;;;;;5064845;28;20632;-69
2021/08/07 08:39:33;;;;;;;8.50;0.80;;;20.00;99.90;;;;;;5069627;28;20493;-68
2021/08/07 08:41:59;;;;;;;5.53;0.50;;;20.10;99.90;;;;;;5065186;28;20025;-73
2021/08/07 08:44:25;;;;;;;3.58;0.35;;;20.10;99.90;;;;;;5066448;28;20503;-69
2021/08/07 08:46:51;;;;;;;4.80;0.73;;;20.20;99.90;;;;;;5069297;28;20059;-69
2021/08/07 08:49:18;;;;;;;2.30;0.45;;;20.40;99.90;;;;;;5068602;28;20020;-67
2021/08/07 08:51:48;;;;;;;4.18;0.50;;;20.70;99.90;;;;;;5068254;28;20030;-68
2021/08/07 08:54:17;;;;;;;;;;;21.10;99.90;;;;;;5070816;28;20043;-68
2021/08/07 08:56:47;;;;;;;2.97;0.40;;;21.40;99.90;;;;;;5074568;28;19948;-68
2021/08/07 08:59:13;;;;;;;1.27;0.50;;;21.50;99.90;;;;;;5071078;28;20546;-68
2021/08/07 09:01:39;;;;;;;5.15;0.47;;;21.50;99.90;;;;;;5070291;28;20104;-68
2021/08/07 09:04:04;;;;;;;4.70;0.80;;;21.50;99.90;;;;;;5070333;28;20605;-68
2021/08/07 09:06:34;;;;;;;1.50;0.50;;;21.70;99.90;;;;;;5072926;28;20096;-68
2021/08/07 09:09:01;;;;;;;2.53;0.45;;;21.70;99.90;;;;;;5074461;28;20043;-68
2021/08/07 09:11:26;;;;;;;1.08;0.30;;;21.60;99.90;;;;;;5076378;28;20028;-68
2021/08/07 09:14:15;;;;;;;2.55;0.40;;;21.60;99.90;;;;;;5095001;28;20028;-68
2021/08/07 09:17:01;;;;;;;2.88;0.60;;;21.50;99.90;;;;;;5071158;28;20115;-68
2021/08/07 09:19:28;;;;;;;3.55;0.73;;;21.60;99.90;;;;;;5071008;28;20107;-68
2021/08/07 09:22:17;;;;;;;3.75;0.38;;;21.80;99.90;;;;;;5068605;28;20040;-67
2021/08/07 09:25:08;;;;;;;2.88;0.32;;;21.90;99.90;;;;;;5055340;28;20105;-67
2021/08/07 09:27:49;;;;;;;4.30;0.45;;;22.20;99.90;;;;;;5050285;28;20489;-68
2021/08/07 09:30:17;;;;;;;2.38;0.45;;;22.60;99.90;;;;;;5066623;28;20035;-67
2021/08/07 09:32:50;;;;;;;6.00;0.98;;;22.80;99.90;;;;;;5066205;28;20115;-68
2021/08/07 09:35:19;;;;;;;1.85;0.35;;;22.70;99.90;;;;;;5063449;28;20028;-68
2021/08/07 09:37:45;;;;;;;7.15;0.88;;;22.70;99.90;;;;;;5065010;28;20025;-68
2021/08/07 09:40:13;;;;;;;0.80;0.25;;;22.50;99.90;;;;;;5066582;28;20047;-68
2021/08/07 09:43:05;;;;;;;1.65;0.30;;;22.60;99.90;;;;;;5063030;28;20067;-68
2021/08/07 09:45:31;;;;;;;4.93;0.60;;;22.50;99.90;;;;;;5061762;28;20028;-68
2021/08/07 09:48:16;;;;;;;2.70;0.98;;;22.40;99.90;;;;;;5066138;28;20075;-67
2021/08/07 09:50:42;;;;;;;4.60;0.40;;;22.40;99.90;;;;;;5065265;28;20441;-67
2021/08/07 09:53:20;;;;;;;1.55;0.30;;;22.40;99.90;;;;;;5066581;28;20114;-68
2021/08/07 09:56:03;;;;;;;2.38;0.52;;;22.20;99.90;;;;;;5062502;28;20464;-66
2021/08/07 09:58:29;;;;;;;5.93;0.90;;;22.10;99.90;;;;;;5064474;28;20119;-68
2021/08/07 10:00:54;;;;;;;3.28;0.30;;;22.00;99.90;;;;;;5064615;28;20119;-66
2021/08/07 10:03:23;;;;;;;4.35;0.50;;;22.00;99.90;;;;;;5066663;28;20496;-67
2021/08/07 10:05:49;;;;;;;3.88;0.80;;;22.10;99.90;;;;;;5065839;28;20025;-68
2021/08/07 10:08:16;;;;;;;4.40;0.60;;;22.00;99.90;;;;;;5067252;28;20036;-68
2021/08/07 10:10:43;;;;;;;1.45;0.55;;;22.00;99.90;;;;;;5057248;28;20445;-67
2021/08/07 10:13:10;;;;;;;2.90;0.40;;;21.80;99.90;;;;;;5063180;28;20060;-67
2021/08/07 10:15:38;;;;;;;2.20;0.57;;;21.60;99.90;;;;;;5064135;28;20729;-67
2021/08/07 10:18:05;;;;;;;4.25;0.52;;;21.40;99.90;;;;;;5065566;28;20086;-68
2021/08/07 10:20:33;;;;;;;3.55;0.70;;;20.90;99.90;;;;;;5065563;28;20840;-68
2021/08/07 10:22:59;;;;;;;3.45;0.52;;;20.50;99.90;;;;;;5065176;28;20063;-68
2021/08/07 10:25:25;;;;;;;3.67;0.38;;;20.50;99.90;;;;;;5058521;28;20060;-67
2021/08/07 10:28:02;;;;;;;3.08;1.00;;;20.70;99.90;;;;;;5063819;28;20108;-67
2021/08/07 10:30:30;;;;;;;1.45;0.40;;;21.10;99.90;;;;;;5065368;28;20033;-67
2021/08/07 10:32:57;;;;;;;3.53;0.98;;;21.40;99.90;;;;;;5069801;28;20036;-68
2021/08/07 10:35:28;;;;;;;2.83;0.68;;;21.40;99.90;;;;;;5064973;28;20039;-68
2021/08/07 10:37:58;;;;;;;4.43;0.57;;;21.40;99.90;;;;;;5069388;28;20028;-68
2021/08/07 10:40:24;;;;;;;;;;;21.40;99.90;;;;;;5069939;28;20516;-67
2021/08/07 10:42:51;;;;;;;5.95;0.52;;;21.70;99.90;;;;;;5070374;28;19924;-68
2021/08/07 10:45:18;;;;;;;4.90;0.68;;;21.90;99.90;;;;;;5070335;28;20032;-68
2021/08/07 10:47:46;;;;;;;3.90;0.50;;;22.30;99.90;;;;;;5070810;28;20037;-67
2021/08/07 10:50:34;;;;;;;5.07;0.95;;;22.50;99.90;;;;;;5065950;28;20032;-68
2021/08/07 10:53:04;;;;;;;2.00;0.38;;;22.70;99.90;;;;;;5068169;28;20492;-68
2021/08/07 10:55:52;;;;;;;2.60;0.50;;;22.70;99.90;;;;;;5071698;28;20029;-68
2021/08/07 10:58:31;;;;;;;2.60;0.70;;;22.50;99.90;;;;;;5067844;28;20039;-68
2021/08/07 11:04:16;;;;;;;4.00;0.40;;;22.70;99.90;;;;;;5068140;28;20043;-69
2021/08/07 11:06:42;;;;;;;2.78;0.77;;;22.80;99.90;;;;;;5066855;28;20074;-68
2021/08/07 11:09:30;;;;;;;3.97;0.70;;;23.00;99.90;;;;;;5070845;28;20094;-67
2021/08/07 11:12:10;;;;;;;2.03;0.43;;;22.90;99.90;;;;;;5069081;28;20104;-68
2021/08/07 11:14:35;;;;;;;1.15;0.47;;;22.90;99.90;;;;;;5070415;28;20125;-67
2021/08/07 11:17:04;;;;;;;3.88;0.43;;;23.10;99.90;;;;;;5069347;28;20465;-67
2021/08/07 11:20:04;;;;;;;2.72;0.40;;;23.20;99.90;;;;;;5070743;28;20496;-68
2021/08/07 11:22:35;;;;;;;6.28;0.90;;;23.20;99.90;;;;;;5069504;28;20166;-68
2021/08/07 11:25:20;;;;;;;1.20;0.57;;;23.10;99.90;;;;;;5070817;28;20073;-68
2021/08/07 11:27:52;;;;;;;1.05;0.38;;;23.10;99.90;;;;;;5065778;28;20033;-68
2021/08/07 11:30:41;;;;;;;4.47;0.73;;;23.10;99.90;;;;;;5070553;28;20101;-68
2021/08/07 11:33:09;;;;;;;3.20;0.60;;;23.30;99.90;;;;;;5090507;28;20062;-68
2021/08/07 11:35:38;;;;;;;2.25;0.85;;;23.40;99.90;;;;;;5090577;28;20032;-68
2021/08/07 11:38:06;;;;;;;2.53;0.68;;;23.40;99.90;;;;;;5090207;28;20032;-67
2021/08/07 11:40:39;;;;;;;6.75;1.15;;;23.40;99.60;;;;;;5089600;28;20052;-68
2021/08/07 11:43:10;;;;;;;3.58;1.10;;;23.40;99.90;;;;;;5080112;28;20502;-68
2021/08/07 11:45:36;;;;;;;3.20;0.38;;;23.40;99.10;;;;;;5090320;28;20086;-68
2021/08/07 11:48:01;;;;;;;5.10;0.40;;;23.30;99.90;;;;;;5089361;28;20040;-68
2021/08/07 11:50:27;;;;;;;2.92;0.50;;;23.30;99.10;;;;;;5080196;28;20381;-68
2021/08/07 11:52:53;;;;;;;2.03;0.25;;;23.20;99.40;;;;;;5089773;28;20133;-67
2021/08/07 11:55:18;;;;;;;2.55;0.20;;;23.30;98.80;;;;;;5090465;28;20565;-68
2021/08/07 11:57:44;;;;;;;2.00;0.60;;;23.30;97.70;;;;;;5090594;28;20036;-68
2021/08/07 12:00:21;;;;;;;10.48;1.25;;;23.30;97.50;;;;;;5089942;28;20433;-68
2021/08/07 12:02:56;;;;;;;0.73;0.20;;;23.40;98.80;;;;;;5077839;28;20514;-67
2021/08/07 12:05:22;;;;;;;1.83;0.50;;;23.50;97.70;;;;;;5090032;28;20059;-66
2021/08/07 12:08:05;;;;;;;3.05;0.40;;;23.50;97.60;;;;;;5080314;28;20055;-66
2021/08/07 12:10:32;;;;;;;2.00;0.55;;;23.40;97.10;;;;;;5089827;28;20060;-65
2021/08/07 12:12:59;;;;;;;3.58;0.85;;;23.30;95.90;;;;;;5090618;28;20036;-67
2021/08/07 12:15:25;;;;;;;3.90;1.02;;;23.20;96.90;;;;;;5079939;28;20044;-67
2021/08/07 12:17:51;;;;;;;2.53;0.77;;;23.00;97.30;;;;;;5089584;28;20031;-65
2021/08/07 12:20:18;;;;;;;3.22;0.40;;;22.90;96.80;;;;;;5089586;28;20040;-67
2021/08/07 12:23:13;;;;;;;2.58;0.25;;;22.90;97.70;;;;;;5089739;28;20025;-66
2021/08/07 12:25:41;;;;;;;0.95;0.20;;;22.90;97.50;;;;;;5046167;28;20036;-66
2021/08/07 12:28:14;;;;;;;2.38;0.73;;;23.10;97.50;;;;;;5065824;28;20481;-67
2021/08/07 12:30:51;;;;;;;1.15;0.20;;;23.30;97.70;;;;;;5065432;28;20516;-66
2021/08/07 12:33:21;;;;;;;6.55;0.50;;;23.60;96.20;;;;;;5069061;28;20220;-67
2021/08/07 12:35:47;;;;;;;2.47;0.45;;;23.60;95.30;;;;;;5069219;28;20258;-67
2021/08/07 12:38:19;;;;;;;2.17;0.73;;;23.70;95.90;;;;;;5069167;28;20501;-67
2021/08/07 12:40:47;;;;;;;2.38;0.43;;;23.80;96.30;;;;;;5067861;28;20089;-67
2021/08/07 12:43:13;;;;;;;1.30;0.40;;;23.80;95.30;;;;;;5068689;28;20045;-67
2021/08/07 12:45:39;;;;;;;3.97;0.30;;;23.80;95.00;;;;;;5066618;28;20378;-66
2021/08/07 12:48:05;;;;;;;1.40;0.30;;;23.90;95.60;;;;;;5068880;28;20504;-66
2021/08/07 12:50:31;;;;;;;2.78;0.43;;;23.80;94.10;;;;;;5068202;28;20033;-67
2021/08/07 12:52:59;;;;;;;4.13;0.57;;;23.50;94.60;;;;;;5068661;28;20109;-67
2021/08/07 12:55:27;;;;;;;5.47;0.47;;;23.40;95.00;;;;;;5067725;28;20964;-67